x

9440910 - Toke Point, Wa (tokw1) Weather Station

9:54 - Sat 28th Feb 2015 All times are PST. -8 hours from GMT.

  • Wind
    5mph, 6mph gusts
  • Ar Temp 46°f
  • Sea Pressure 1023.9mb
  • 9440910 - Toke Point, Wa
  • 9440910 - Toke Point, Wa

More Historic Weather Station data

Upgrade to MSW Pro to gain access to the past 30 days of data for over 8000 Wavebouys and Weather Stations around the globe.

Join Pro

Comparision Forecast

View Surf forecast
   
Sáb 02/28 9:54 5 6 mph 1023.9mb 46f
9:48 6 7 mph 1023.8mb 46f
9:42 7
mph
1023.8mb 47f
9:36 7
mph
1023.7mb 47f
9:30 8
mph
1023.7mb 47f
9:24 7 8 mph 1023.8mb 47f
9:18 7 8 mph - -
9:12 7 8 mph 1023.6mb 48f
9:06 5 7 mph 1023.5mb 48f
9:00 6 8 mph 1023.5mb 48f
8:54 1 7 mph 1023.5mb 46f
8:48 6 8 mph 1023.4mb 46f
8:42 3 5 mph 1023.5mb 46f
8:36  -  5 mph 1023.4mb 45f
8:30 5 8 mph 1023.4mb 46f
8:24 8 10 mph 1023.3mb 46f
8:18 9 10 mph 1023.3mb 46f
8:12 10
mph
1023.2mb 46f
8:06 10 11 mph 1023.2mb 47f
7:48 9 10 mph 1023.2mb 47f
7:42 9 11 mph 1023.1mb 47f
7:36 10 11 mph 1023mb 48f
7:30 11
mph
1023mb 48f
7:24 10 11 mph 1022.9mb 47f
7:18 10 11 mph 1022.9mb 47f
7:12 11
mph
1022.9mb 48f
7:06 11 13 mph 1022.8mb 48f
7:00 11 13 mph 1022.7mb 48f
6:54 13 14 mph 1022.7mb 48f
6:48 13 14 mph 1022.7mb 48f
6:42 13 14 mph 1022.7mb 48f
6:36 13 14 mph 1022.7mb 48f
6:30 13 14 mph 1022.6mb 48f
6:24 14
mph
1022.5mb 49f
6:18 14 15 mph 1022.5mb 49f
6:12 14 15 mph 1022.4mb 49f
6:06 13 16 mph 1022.3mb 50f
6:00 15 16 mph 1022.3mb 50f
5:54 15 17 mph 1022.2mb 50f
5:48 15 17 mph 1022.2mb 50f
5:42 15 17 mph 1022.2mb 51f
5:36 15 17 mph 1022.2mb 51f
5:30 15 18 mph 1022.2mb 51f
5:24 16 18 mph 1022.1mb 52f
5:18 15 18 mph 1022.2mb 52f
5:12 16 18 mph 1022.1mb 52f
5:06 15 17 mph 1022mb 53f
5:00 15 17 mph 1021.9mb 53f
4:54 14 16 mph 1021.8mb 54f
4:48 14 15 mph 1021.7mb 54f
4:42 6 8 mph 1021.7mb 56f
4:36 8 9 mph 1021.5mb 56f
4:30 7 10 mph 1021.5mb 56f
4:24 6 9 mph 1021.5mb 56f
4:18 8 10 mph 1021.5mb 56f
4:12 9 11 mph 1021.6mb 56f
4:06 11 14 mph 1021.6mb 56f
4:00 9 11 mph 1021.6mb 56f
3:54 10 11 mph 1021.5mb 56f
3:48 5 9 mph 1021.5mb 56f
2:54 11 15 mph - -
2:48 9 13 mph 1021.9mb 56f
2:42 11 14 mph 1021.9mb 56f
2:36 10 13 mph 1022mb 56f
2:30 10 14 mph 1022mb 56f
2:24 11 15 mph 1022mb 56f
2:18 11 16 mph 1022mb 56f
2:12 13 22 mph - -
2:06 11 17 mph 1021.9mb 56f
2:00 13 17 mph 1021.9mb 56f
1:54 11 16 mph 1021.8mb 55f
1:48 10 11 mph 1021.8mb 55f
1:42 9 14 mph 1021.8mb 54f
1:36 13 14 mph 1021.8mb 55f
1:30 11 14 mph 1021.7mb 55f
1:24 10 11 mph 1021.8mb 55f
1:18 10 13 mph 1021.8mb 54f
1:12 11 14 mph 1021.7mb 54f
1:06 10 13 mph 1021.7mb 54f
1:00 7 10 mph 1021.7mb 53f
12:54 9 10 mph 1021.7mb 53f
12:48 7 10 mph 1021.7mb 53f
12:42 8 10 mph 1021.8mb 53f
12:36 9 13 mph 1021.7mb 53f
12:30 8 10 mph 1021.7mb 52f
12:24 9 13 mph 1021.8mb 52f
12:18 10 11 mph 1021.8mb 52f
12:12 9 13 mph 1021.8mb 52f
12:06 11 13 mph 1021.8mb 52f
12:00 11 14 mph 1021.8mb 52f
11:54 13 15 mph 1021.7mb 52f
11:48 11 14 mph 1021.8mb 52f
11:42 13
mph
1021.9mb 51f
11:36 11 14 mph 1021.9mb 51f
11:30 14 16 mph 1021.9mb 51f
11:24 10 13 mph 1022mb 51f
11:18 11 14 mph 1022mb 51f
11:12 11 14 mph 1021.9mb 51f
11:06 11 13 mph 1021.9mb 51f
11:00 10 14 mph 1021.9mb 51f
10:54 11 13 mph 1021.8mb 50f
10:48 7 11 mph 1021.9mb 50f
10:42 10 13 mph 1021.7mb 50f
10:36 10 17 mph 1021.6mb 50f
10:30 15 17 mph 1021.6mb 51f
10:24 13 17 mph 1021.6mb 50f
10:18 16 20 mph 1021.4mb 50f
10:00 16 21 mph 1021.1mb 50f
9:54 17 20 mph 1021mb 50f
9:48 16 20 mph 1021mb 50f
9:42 17 23 mph 1021mb 50f
9:36 20 23 mph 1020.8mb 50f
9:30 16 22 mph 1020.7mb 49f
9:24 20 22 mph 1020.7mb 49f
9:18 18 23 mph 1020.6mb 49f
9:12 21 23 mph 1020.5mb 49f
9:06 20 25 mph 1020.4mb 49f
9:00 22 25 mph 1020.3mb 49f
8:54 21 25 mph 1020.3mb 49f
8:48 22 25 mph 1020.2mb 49f
8:42 21 24 mph 1020.3mb 49f
8:36 18 22 mph 1020.2mb 49f
8:30 16 22 mph 1020.1mb 49f
8:24 20 23 mph 1020.1mb 48f
8:18 18 20 mph 1020mb 48f
8:12 18 21 mph 1019.9mb 48f
8:06 17 21 mph 1019.8mb 47f
8:00 16 18 mph 1019.7mb 47f
7:54 15 20 mph 1019.7mb 47f
7:48 16 20 mph 1019.6mb 47f
7:42 17 21 mph 1019.5mb 47f
7:36 16 18 mph 1019.3mb 47f
7:30 16 18 mph 1019.2mb 47f
7:24 16 20 mph 1019mb 47f
7:18 18 23 mph 1018.8mb 47f
7:12 17 21 mph 1018.8mb 47f
7:06 18 21 mph 1018.7mb 47f
7:00 15 21 mph 1018.6mb 47f
6:54 14 20 mph 1018.6mb 47f
6:48 14 17 mph 1018.6mb 47f
6:42 13 14 mph 1018.5mb 47f
6:36 13 16 mph 1018.4mb 47f
6:30 13 16 mph 1018.3mb 47f
6:12 11 17 mph 1018mb 47f
6:06 18 21 mph 1017.9mb 47f
6:00 15 18 mph 1017.8mb 47f
5:54 13 16 mph 1017.8mb 47f
5:48 13 16 mph 1017.6mb 48f
5:42 15 18 mph 1017.5mb 48f
5:36 15 18 mph 1017.3mb 48f
5:30 14 16 mph 1017.2mb 48f
5:24 14 16 mph 1017.2mb 48f
5:18 14 16 mph 1017.1mb 48f
5:12 10 13 mph 1017mb 48f
5:06 11 14 mph 1017mb 47f
5:00 10 13 mph 1016.9mb 47f
4:54 10 13 mph 1016.7mb 47f
4:48 10 13 mph 1016.7mb 47f
4:42 10 11 mph 1016.6mb 47f
4:36 10 15 mph 1016.5mb 48f
4:30 11 15 mph 1016.4mb 48f
4:24 13 15 mph 1016.2mb 48f
4:18 14 16 mph 1016.1mb 48f
4:12 11 15 mph 1016mb -
4:06 14 15 mph 1015.9mb 48f
4:00 13 14 mph 1015.8mb 48f
3:54 13 15 mph 1015.9mb 48f
3:48 14 15 mph 1015.9mb 48f
3:42 13 16 mph 1015.8mb 48f
3:36 13 15 mph 1015.7mb 48f
3:30 11 15 mph 1015.6mb 48f
3:24 10 14 mph 1015.5mb 48f
3:18 11 13 mph 1015.4mb 48f
3:12 10 14 mph 1015.5mb 48f
3:06 13 15 mph 1015.4mb 48f
3:00 13 15 mph 1015.5mb 48f
2:54 14 16 mph 1015.4mb 48f
2:48 11 14 mph 1015.4mb 48f
2:42 11 14 mph 1015.5mb 48f
2:36 13 14 mph 1015.4mb 48f
2:30 10 13 mph 1015.2mb 48f
2:24 10 13 mph 1015.1mb 48f
2:18 10 14 mph 1014.9mb 48f
2:12 8 10 mph 1014.9mb 48f
2:06 9 11 mph 1015mb 48f
2:00 11 13 mph 1015mb 48f
1:54 13 15 mph 1014.9mb 49f
1:48 10 13 mph 1014.8mb 49f
1:42 10 16 mph 1014.6mb 49f
1:36 13 15 mph 1014.5mb 49f
1:30 13 15 mph 1014.4mb 49f
1:24 13 17 mph 1014.2mb 49f
1:18 14 17 mph 1014mb 49f
1:12 14 17 mph 1013.9mb 49f
1:06 10 15 mph 1013.8mb 49f
1:00 13 15 mph 1013.7mb 49f
12:54 13 16 mph 1013.6mb 48f
12:48 11 14 mph 1013.5mb 47f
12:42 11 13 mph 1013.3mb 47f
12:36 10 11 mph 1013.4mb 47f
12:30 10 11 mph 1013.4mb 48f
12:24 10 11 mph 1013.4mb 47f
12:18 10 11 mph 1013.3mb 47f
12:12 10 13 mph 1013.3mb 47f
12:06 11 13 mph 1013.2mb 48f
12:00 11 14 mph 1013.1mb 48f
Sex 02/27 11:54 11 14 mph 1013.1mb 49f
11:48 11 13 mph 1013mb 49f
11:42 11 13 mph 1012.9mb 49f
11:36 11 14 mph 1012.8mb 49f
11:30 11 14 mph 1012.7mb 49f
11:24 10 14 mph 1012.6mb 49f
11:18 10 11 mph 1012.5mb 49f
11:12 11
mph
1012.5mb 49f
11:06 10 11 mph 1012.4mb 49f
11:00 8 10 mph 1012.4mb 49f
10:36 8 10 mph 1012.3mb 48f
10:30 8 9 mph - -
10:12 11 14 mph 1011.9mb 49f
10:06 11 14 mph 1011.8mb 49f
9:48 11 14 mph 1011.4mb 48f
9:42 9 11 mph 1011.3mb 48f
9:36 9 11 mph 1011.4mb 48f
9:30 9 10 mph 1011.3mb 48f
9:24 10 13 mph 1011.1mb 48f
9:18 10 13 mph 1010.9mb 49f
9:12 9 13 mph 1010.8mb 48f
9:06 13 14 mph 1010.7mb 49f
9:00 14 16 mph 1010.6mb -
8:54 14 15 mph 1010.5mb 49f
8:48 13 20 mph 1010.4mb 49f
8:42 14 17 mph 1010.2mb 49f
8:36 14 16 mph 1010.2mb 49f
8:30 13 16 mph 1010mb 48f
8:24 10 14 mph 1010mb 48f
8:18 11 17 mph 1010mb 48f
8:12 13 20 mph 1009.8mb 48f
7:54 15 18 mph 1009.5mb 48f
7:48 15 20 mph 1009.5mb 48f
7:42 15 21 mph 1009.4mb 48f
7:36 15 18 mph 1009.3mb 48f
7:30 16 20 mph 1009.2mb 48f
7:24 15 21 mph 1009.2mb 48f
7:18 15 17 mph 1009.1mb 48f
7:12 15 21 mph 1009mb 48f
7:06 16 22 mph 1009mb 48f
7:00 16 22 mph 1008.9mb 49f
6:54 17 21 mph 1008.8mb 49f
6:48 18 22 mph - -
6:42 17 24 mph 1008.6mb 49f
6:36 18 23 mph 1008.5mb 49f
6:30 17 24 mph 1008.5mb 49f
6:24 16 22 mph 1008.5mb 49f
6:18 16 21 mph 1008.4mb 49f
6:12 16 18 mph 1008.4mb 49f
6:06 15 20 mph 1008.4mb 49f
6:00 17 21 mph 1008.3mb 49f
5:42 17 22 mph 1008mb 49f
5:36 18 22 mph 1008mb 49f
5:30 18 22 mph 1008mb 49f
5:24 20 23 mph 1007.9mb 49f
5:18 17 22 mph 1007.9mb 49f
5:12 14 22 mph 1007.9mb 49f
5:06 17 22 mph 1007.8mb 49f
5:00 15 21 mph 1007.8mb 50f
4:54 16 18 mph 1007.8mb 50f
4:48 14 16 mph 1007.8mb 50f
4:42 11 14 mph - -
4:36 13 16 mph 1007.6mb 49f
4:30 13 17 mph 1007.6mb 50f
4:24 14 16 mph 1007.5mb 50f
4:18 15 20 mph 1007.5mb 50f
4:12 14 16 mph 1007.4mb 49f
4:06 16 20 mph 1007.4mb 50f
4:00 10 16 mph 1007.3mb 50f
3:54 14 18 mph 1007.2mb 50f
3:48 16 20 mph 1007.2mb 51f
3:42 14 16 mph 1007.1mb 51f
3:36 10 15 mph 1007mb 51f
3:30 9 11 mph 1007mb -
3:24 6
mph
1006.9mb 50f
1:54 1 2 mph 1006.5mb 50f
1:48 1 3 mph 1006.4mb 51f
1:42 2
mph
1006.4mb 51f
1:24 1 2 mph 1006.4mb 51f
1:18 2 3 mph 1006.4mb 51f
1:12 2 3 mph 1006.4mb 50f
1:06 2 3 mph 1006.4mb 50f
1:00 1 3 mph 1006.4mb 50f
12:54 2 3 mph 1006.4mb 50f
12:48 2 3 mph 1006.4mb 50f
12:42 1 2 mph 1006.5mb 50f
12:36 1 2 mph 1006.6mb 50f
12:30  -  1 mph 1006.6mb 50f
12:24 2 3 mph 1006.7mb 50f
12:18 2
mph
1006.7mb 50f
12:12 1 2 mph 1006.7mb 51f
12:06 2 3 mph 1006.7mb 51f
12:00 1 3 mph 1006.7mb 50f
11:54 2 3 mph 1006.8mb 50f
11:48 3 5 mph 1006.8mb 50f
11:42 2 3 mph 1006.8mb 50f
11:36 3 5 mph 1006.8mb 49f
11:30 3 6 mph 1006.8mb 49f
11:24 5 6 mph 1006.8mb 49f
11:18 6 7 mph 1006.8mb 49f
11:12 6 7 mph 1006.8mb 49f
11:06 6 7 mph 1006.8mb 49f
11:00 7 8 mph 1006.8mb 49f
10:54 6 8 mph 1006.8mb 49f
10:48 7 9 mph 1006.8mb 49f
10:42 7 8 mph 1006.8mb 49f
10:36 7 9 mph 1006.7mb 49f
10:30 8 9 mph 1006.7mb 49f
10:24 8 9 mph 1006.7mb 49f
10:18 8 9 mph 1006.7mb 49f
10:12 8 9 mph 1006.7mb 49f
10:06 8 9 mph 1006.7mb 49f
10:00 8 9 mph 1006.7mb 49f
9:54 8 9 mph 1006.7mb 49f
9:48 9
mph
1006.7mb 48f
9:42 8 10 mph 1006.7mb 48f
9:36 9 10 mph 1006.7mb 48f
9:30 9 10 mph 1006.6mb 48f
9:24 9 10 mph 1006.5mb 48f
9:18 9 10 mph 1006.5mb 48f
9:12 10 11 mph 1006.4mb 48f
9:06 10 13 mph 1006.4mb 48f
9:00 11 13 mph 1006.3mb 48f
8:54 11 13 mph 1006.3mb 48f
8:48 11 13 mph 1006.3mb 48f
8:42 10 13 mph 1006.3mb 48f
8:36 10 13 mph 1006.2mb 48f
8:30 10 11 mph 1006.2mb 48f
8:24 11 13 mph 1006.2mb 48f
8:18 10 11 mph 1006.1mb 48f
8:12 10 11 mph 1006.1mb 48f
8:06 9 11 mph 1006mb 48f
8:00 10 11 mph 1006mb 48f
7:54 9 10 mph 1006mb 48f
7:48 8 9 mph 1006.1mb 48f
7:42 7
mph
1006.1mb 48f
7:36 3
mph
1006.1mb 49f
7:30 1 2 mph 1006.1mb 48f
7:24  -  1 mph 1006mb 48f
7:18  -  1 mph 1006mb 48f
7:12  -  mph 1006mb 48f
7:06  -  2 mph 1006mb 48f
7:00  -  2 mph 1006.1mb 48f
6:54  -  5 mph 1006.1mb 48f
6:48 2 5 mph 1006.1mb 48f
6:42  -  2 mph 1006.1mb 48f
6:18  -  mph 1006.2mb 48f
6:12  -  2 mph 1006.2mb 48f
6:06  -  2 mph 1006.2mb 48f
6:00  -  2 mph 1006.2mb 48f
5:54 1 3 mph 1006.2mb 49f
5:48 2 5 mph 1006.3mb 49f
5:42 3
mph
1006.3mb 48f
5:36 3 6 mph 1006.3mb 48f
5:30 5 7 mph 1006.3mb 49f
5:24 6
mph
1006.3mb 49f
5:18 6 7 mph 1006.3mb 49f
5:12 5 8 mph 1006.3mb 49f
5:06 6 9 mph 1006.3mb 48f
5:00 6 9 mph 1006.3mb 48f
4:54 6
mph
1006.3mb 48f
4:48 5 6 mph 1006.4mb 48f
4:42 3 5 mph 1006.5mb 48f
4:36 5
mph
1006.6mb 48f
4:30 5 6 mph 1006.6mb 48f
4:24 5
mph
1006.6mb 48f
4:18 3 5 mph 1006.7mb 48f
4:12 3 5 mph 1006.7mb 48f
4:06 3 6 mph 1006.8mb 49f
4:00 5 6 mph 1006.8mb -
3:54 5 7 mph 1006.8mb 49f
3:48 6
mph
1006.9mb 49f
3:42 5
mph
1007mb 48f
3:36 3 5 mph 1007mb 48f
3:30 3 5 mph 1007.1mb 48f
3:24 5 6 mph 1007.1mb 48f
3:18 3 5 mph 1007.1mb 48f
3:12 5 6 mph 1007.2mb 48f
3:06 5 7 mph 1007.3mb 48f
3:00 5 6 mph 1007.3mb -
2:54 5 7 mph 1007.3mb 48f
2:48 6
mph
1007.4mb 49f
2:42 6 7 mph 1007.5mb 49f
2:36 6
mph
1007.5mb 48f
2:30 5 6 mph 1007.5mb 48f
2:24 6 9 mph 1007.6mb 49f
2:18 8 11 mph 1007.7mb 49f
2:12 9 10 mph 1007.7mb 48f
2:06 7 9 mph 1007.8mb 49f
2:00 8 10 mph 1007.9mb 49f
1:54 6 10 mph 1007.9mb 48f
1:48 8 11 mph 1007.9mb 49f
1:42 9 13 mph 1008mb 49f
1:36 11 14 mph 1008mb 49f
1:30 9 13 mph 1008mb 49f
1:24 6 7 mph 1008.1mb 49f
1:18 6 10 mph 1008.1mb 49f
1:12 8 10 mph 1008.1mb 49f
1:06 9 11 mph 1008.1mb 49f
1:00 8 13 mph 1008.1mb 49f
12:54 11 13 mph 1008.1mb 49f
12:48 11 14 mph 1008.2mb 49f
12:42 11 15 mph 1008.2mb 49f
12:36 9 11 mph 1008.3mb 50f
12:30 9 11 mph 1008.3mb 50f
12:24 8 13 mph 1008.4mb 50f
12:18 11 15 mph 1008.4mb -
12:12 13 15 mph 1008.4mb 50f
12:06 13 15 mph 1008.5mb 50f
12:00 11 15 mph 1008.6mb 50f
Qui 02/26 11:54 10 13 mph 1008.7mb 50f
11:48 10 15 mph 1008.8mb 50f
11:42 10 14 mph 1008.8mb 50f
11:36 11 15 mph 1008.8mb 50f
11:30 14 16 mph - -
11:24 13 18 mph 1008.9mb 50f
11:18 13 24 mph 1008.9mb 50f
11:12 18 30 mph 1008.8mb 51f
11:06 7 28 mph 1008.2mb 50f
11:00 23 26 mph 1008.2mb 50f
10:54 18 21 mph 1008.6mb 49f
10:48 11 16 mph 1008.8mb 49f
10:42 13 15 mph 1009.1mb -
10:18 10 11 mph 1009.7mb 49f
9:54 11 13 mph 1010.2mb 50f
9:48 9 11 mph 1010.3mb 50f
9:42 10 13 mph 1010.5mb 50f
9:36 13 15 mph 1010.7mb 50f
9:30 10 14 mph 1010.8mb 50f
9:24 9 13 mph 1011mb 50f
9:18 11 13 mph 1011.2mb 50f
9:12 11 14 mph 1011.3mb 50f
9:06 13 15 mph 1011.4mb 50f
9:00 11 15 mph 1011.5mb 50f
8:54 11 15 mph 1011.7mb 50f
8:48 14 17 mph 1011.8mb -
8:42 15 17 mph 1011.8mb 50f
8:36 14 17 mph 1011.8mb 50f
8:30 15 18 mph 1012mb 50f
8:24 14 17 mph 1012.2mb 50f
8:18 14 17 mph 1012.3mb 50f
8:12 15 18 mph 1012.4mb 50f
8:06 13 16 mph 1012.6mb 50f
8:00 13 17 mph 1012.7mb 50f
7:54 14 16 mph 1012.9mb 50f
7:48 14 16 mph 1012.9mb 50f
7:42 11 15 mph 1013mb 50f
7:36 11 15 mph 1013.1mb 50f
7:30 11 14 mph 1013.1mb 50f
7:24 13 14 mph 1013.2mb 50f
7:18 11 14 mph 1013.4mb 50f
7:12 13 15 mph 1013.4mb 50f
7:06 10 14 mph 1013.6mb 50f
7:00 11 14 mph 1013.6mb 50f
6:54 8 10 mph 1013.7mb 51f
6:48 8 10 mph 1013.8mb 50f
6:42 8 10 mph 1013.9mb 50f
6:36 6 9 mph 1014.1mb 50f
6:30 5 9 mph 1014.1mb 50f
6:24 5 11 mph 1014.2mb 50f
6:18 7 10 mph 1014.4mb 50f
6:12 7 11 mph 1014.5mb 50f
6:06 6 9 mph 1014.5mb 51f
6:00 5 8 mph 1014.7mb 51f
5:54 3 7 mph 1014.8mb 51f
5:48 6 8 mph 1014.8mb 51f
5:42 7 9 mph 1014.8mb 51f
5:36 7 9 mph 1015mb 51f
5:30 8 10 mph 1015.1mb 51f
5:24 9 10 mph 1015.3mb 51f
5:18 8 9 mph 1015.3mb 51f
5:12 8 9 mph 1015.5mb 51f
5:06 6 7 mph 1015.6mb 51f
5:00 5 7 mph 1015.8mb 51f
4:54 6 7 mph 1015.7mb 52f
4:48 3 6 mph 1015.8mb 51f
4:42 5 6 mph 1016mb 52f
4:36  -  3 mph 1016.1mb 52f
4:30 2 5 mph 1016.2mb 52f
4:24 3 6 mph 1016.3mb 51f
4:18 2 6 mph 1016.4mb 52f
4:12 3 6 mph 1016.5mb 52f
4:06 2 6 mph 1016.5mb 52f
4:00 1 7 mph 1016.7mb 52f
3:54 3 7 mph 1016.8mb 52f
3:48 5 8 mph 1016.9mb 51f
3:42 1 3 mph 1017.1mb 52f
3:36 2 6 mph 1017.2mb 52f
3:30 1 3 mph 1017.3mb 52f
3:24  -  3 mph 1017.3mb 52f
3:18  -  5 mph 1017.3mb 52f
3:12 1 5 mph 1017.5mb 52f
3:06 1 5 mph 1017.5mb 53f
3:00 1 6 mph 1017.6mb 52f
2:54 2 5 mph 1017.6mb 53f
2:48 2 8 mph 1017.7mb 52f
2:42 2 6 mph 1017.8mb 53f
2:36 2 6 mph 1017.9mb 54f
2:30 2 7 mph 1018mb 53f
2:24 1 5 mph 1018mb 53f
2:18 2 6 mph 1018.1mb 53f
2:12 1 5 mph 1018.1mb 53f
2:06 2 10 mph 1018.2mb 52f
2:00 2 9 mph 1018.3mb 53f
1:54 7 9 mph 1018.3mb 51f
1:48 5 8 mph 1018.5mb 52f
1:42 2 7 mph 1018.5mb 52f
1:36 3 7 mph 1018.5mb 52f
1:30 2 6 mph 1018.6mb 53f
1:24 1 3 mph 1018.7mb 53f
1:18 1 6 mph 1018.8mb 53f
1:12 2 5 mph 1018.8mb 53f
1:06  -  3 mph 1018.9mb 52f
1:00  -  5 mph 1019.1mb 51f
12:54 6 9 mph 1019.2mb 50f
12:48 7 11 mph 1019.3mb 50f
12:42 9 11 mph 1019.5mb 50f
12:36 7 10 mph 1019.6mb 51f
12:30 1 6 mph 1019.7mb 52f
12:24 1 6 mph 1019.8mb 52f
12:18 1 3 mph 1019.8mb 52f
12:12 2 7 mph 1019.9mb 52f
12:06 1 3 mph 1020.1mb 52f
12:00 1 6 mph 1020.1mb 52f
11:54 3 6 mph 1020.2mb 52f
11:48 2 8 mph 1020.3mb 52f
11:42 2 5 mph 1020.4mb 53f
11:36 1 2 mph 1020.4mb 53f
11:30 2 6 mph 1020.4mb 52f
11:24 3 7 mph 1020.4mb 53f
11:18 2 7 mph 1020.5mb 52f
11:12 6 7 mph 1020.5mb 52f
11:06 3 7 mph 1020.6mb 52f
11:00 5 6 mph 1020.7mb 53f
10:54 1 5 mph 1020.8mb 53f
10:48 1 6 mph 1020.8mb 52f
10:42  -  5 mph 1020.8mb 53f
10:36 1 5 mph 1020.9mb 53f
10:30 2 6 mph 1020.9mb 52f
10:24  -  3 mph 1020.9mb 52f
10:18 3 6 mph 1020.9mb 51f
10:12 3 6 mph 1021mb 51f
10:06 1 5 mph 1021mb 52f
10:00  -  3 mph 1021.1mb 53f
9:54 1 5 mph 1021.2mb 52f
9:48 1 3 mph 1021.2mb 51f
9:42  -  2 mph 1021.2mb 51f
9:36  -  5 mph 1021.3mb 51f
9:30 2 5 mph 1021.4mb 50f
9:24 5 6 mph 1021.5mb 50f
9:18 6 7 mph 1021.6mb 50f
9:12 5 6 mph 1021.7mb 50f
9:06 5 7 mph 1021.6mb 50f
9:00 6 8 mph 1021.7mb 49f
8:54 6 8 mph 1021.6mb 49f
8:48 6 9 mph 1021.7mb 49f
8:42 7 9 mph 1021.7mb 49f
8:36 7 9 mph 1021.8mb 49f
8:30 9 10 mph 1021.8mb 49f
8:24 8 9 mph 1021.8mb 49f
8:18 7 8 mph 1021.9mb 49f
8:12 5 6 mph 1021.9mb 49f
8:06 2 7 mph 1021.8mb 49f
8:00 6 8 mph 1021.8mb 49f
7:54 7 9 mph 1021.8mb 49f
7:48 8 9 mph 1021.7mb 49f
7:42 6 8 mph 1021.6mb 49f
7:36 8 9 mph 1021.6mb 49f
7:30 8 9 mph 1021.6mb 49f
7:24 8 9 mph 1021.6mb 49f
7:18 8 10 mph 1021.6mb 49f
7:12 9 11 mph 1021.5mb 49f
7:06 10 11 mph 1021.5mb 49f
7:00 9 11 mph 1021.6mb 49f
6:54 10 11 mph 1021.5mb 49f
6:48 9 10 mph - -
6:42 8 10 mph 1021.6mb 49f
6:36 10
mph
1021.6mb 49f
6:30 10 11 mph 1021.5mb 49f
6:24 10 13 mph 1021.6mb 49f
6:18 9 11 mph 1021.7mb 49f
6:12 10 11 mph 1021.8mb 49f
6:06 10 11 mph 1021.7mb 49f
6:00 9 10 mph 1021.9mb 49f
5:54 9 11 mph 1021.9mb 49f
5:48 9 10 mph 1022.1mb 49f
5:42 11 13 mph 1022.2mb 49f
5:36 9 10 mph 1022.2mb 49f
5:30 11 13 mph 1022.3mb 49f
5:24 10 11 mph 1022.4mb 49f
5:18 11 13 mph 1022.4mb 49f
5:12 9 13 mph 1022.4mb 49f
5:06 11 13 mph 1022.4mb 49f
5:00 10 13 mph 1022.4mb 49f
4:54 10 14 mph 1022.4mb 49f
4:48 10 13 mph 1022.5mb 49f
4:42 10 14 mph 1022.6mb 49f
4:36 10 14 mph 1022.7mb 49f
4:30 14 15 mph 1022.8mb 49f
4:24 13 17 mph 1022.9mb 49f
4:18 14 16 mph 1022.9mb 49f
4:12 11 20 mph 1023.1mb 49f
4:06 13 15 mph 1023.1mb 49f
4:00 13 16 mph 1023.1mb 49f
3:54 15 17 mph 1023.1mb 49f
3:48 11 14 mph 1023.3mb 49f
3:42 14 17 mph 1023.4mb 49f
3:36 15 16 mph 1023.4mb 49f
3:30 11 14 mph 1023.5mb 49f
3:24 13 16 mph 1023.6mb 48f
3:18 14 15 mph 1023.5mb 49f
3:12 15 17 mph 1023.6mb 49f
3:06 10 15 mph 1023.7mb 48f
3:00 14 17 mph 1023.7mb 48f
2:54 14 16 mph 1023.7mb 49f
2:48 14 15 mph 1023.9mb 49f
2:42 14 16 mph 1024mb 49f
2:36 14 16 mph 1023.9mb 49f
2:30 14 17 mph 1023.9mb 49f
2:24 13 16 mph 1024mb 49f
2:18 13 16 mph 1024mb 49f
2:12 13 16 mph 1024.1mb 49f
2:06 15 17 mph 1024.1mb 49f
2:00 13 17 mph 1024.2mb 49f
1:54 14 16 mph 1024.1mb 49f
1:48 14 17 mph 1024.2mb 48f
1:42 14 16 mph 1024.2mb 48f
1:36 14 16 mph 1024.3mb 48f
1:30 13 15 mph 1024.3mb 48f
1:24 11 14 mph 1024.4mb 48f
1:18 11 14 mph 1024.4mb 48f
1:12 11 14 mph 1024.5mb 48f
1:06 11 13 mph 1024.6mb 49f
1:00 11 14 mph 1024.6mb 48f
12:54 11 13 mph 1024.7mb 49f
12:48 9 13 mph 1024.8mb 49f
12:42 8 11 mph 1025mb 48f
12:36 8 11 mph 1025mb 48f
12:30 9 11 mph 1025mb 48f
12:24 9 13 mph 1025.1mb 48f
12:18 8 13 mph 1025.3mb 48f
12:12 9 10 mph 1025.4mb 48f
12:06 8 9 mph 1025.5mb 48f
12:00 7 9 mph 1025.6mb 48f
Qua 02/25 11:54 7 10 mph 1025.7mb 48f
11:48 5 7 mph 1025.8mb 48f
11:42 2 8 mph 1026mb 48f
11:36 2 6 mph 1026mb 48f
11:30 1 5 mph 1026mb 48f
11:24 1 7 mph 1025.9mb 48f
11:18 2 6 mph 1025.8mb 48f
11:12 2 7 mph 1025.9mb 48f
11:06 2 6 mph 1025.8mb 48f
11:00 1 3 mph 1025.9mb 48f
10:54 1 5 mph 1026mb 48f
10:48 1 5 mph 1026.1mb 48f
10:42 3 6 mph 1026mb 48f
10:18 6 8 mph 1026.2mb 48f
10:12 7 11 mph 1026.2mb 48f
9:54 6 14 mph 1026.5mb 48f
9:48 7 10 mph 1026.7mb 48f
9:42 6 10 mph 1026.7mb 48f
9:36 3 7 mph 1026.8mb 48f
9:30 2 6 mph 1026.8mb 48f
9:24 5 6 mph 1026.9mb 48f
9:18 5 6 mph 1026.7mb 48f
9:12 5 6 mph 1026.7mb 48f
9:06 3 7 mph 1026.6mb 48f
9:00 6 7 mph 1026.8mb 48f
8:54 3 6 mph 1026.8mb 48f
8:48 5 7 mph 1026.8mb 48f
8:42 6 9 mph 1026.9mb 48f
8:36 8 11 mph 1026.9mb 48f
8:30 8 10 mph 1026.8mb 49f
8:24 3 5 mph 1026.8mb 49f
8:18 2 5 mph 1026.8mb 49f
8:12 3 5 mph 1026.9mb 49f
8:06 3 5 mph 1027mb 49f
7:36 7 8 mph 1027.1mb 50f
7:30 6 7 mph 1027.1mb 49f
7:24 6 8 mph 1027.1mb 49f
7:18 5 6 mph 1027.2mb 49f
7:12 3 6 mph 1027.3mb 49f
7:06 5 6 mph 1027.3mb 49f
7:00 3 5 mph 1027.3mb 49f
6:54 3 5 mph 1027.2mb 49f
6:48 5
mph
1027.3mb 49f
6:42 5
mph
1027.3mb 49f
6:36 5 6 mph 1027.4mb 49f
6:30 5 6 mph 1027.4mb 49f
6:24 5 6 mph 1027.5mb 49f
6:18 6
mph
1027.5mb 49f
6:12 6 7 mph 1027.6mb 49f
6:06 7 8 mph 1027.7mb 49f
6:00 7 9 mph 1027.7mb 49f
5:54 6 8 mph 1027.7mb 49f
5:48 6 8 mph 1027.8mb 49f
5:42 6 9 mph 1027.9mb 49f
5:36 8 9 mph 1027.9mb 49f
5:30 6 8 mph 1027.9mb 49f
5:24 7 9 mph 1028mb 49f
5:18 7 10 mph 1028.1mb 49f
5:12 8 10 mph 1028.1mb 49f
5:06 9 10 mph 1028.1mb 49f
5:00 7 9 mph 1028.1mb 49f
4:54 8 11 mph 1028mb 49f
4:48 8 10 mph 1028.1mb 50f
4:42 7 8 mph 1028.1mb 49f
4:36 6 8 mph 1028.3mb 49f
4:30 8 10 mph 1028.4mb 49f
4:24 9 10 mph 1028.6mb 49f
4:18 9 11 mph 1028.5mb 49f
4:12 10 13 mph 1028.6mb 49f
4:06 13 15 mph 1028.5mb 49f
4:00 8 11 mph 1028.6mb 50f
3:54 8 10 mph 1028.6mb 50f
3:48 8 9 mph 1028.7mb 50f
3:42 6 8 mph 1028.7mb 50f
3:36 5 9 mph 1028.6mb 50f
3:30 6 11 mph 1028.7mb 50f
3:24 9 11 mph 1028.7mb 50f
3:18 8 10 mph 1028.7mb 50f
3:12 7 9 mph 1028.7mb 50f
3:06 7 9 mph 1028.7mb 50f
3:00 6 9 mph 1028.8mb 50f
2:54 7 9 mph 1028.9mb 50f
2:48 8 10 mph 1028.9mb 50f
2:42 8 10 mph 1029.1mb 50f
2:36 8 13 mph 1029mb 51f
2:30 9 14 mph 1029mb 50f
2:24 9 11 mph 1029mb 50f
2:18 7 10 mph 1028.9mb 50f
2:12 9 13 mph 1029mb 50f
2:06 9 13 mph 1029mb 50f
2:00 10 13 mph 1029mb 50f
1:54 9 11 mph 1029mb 51f
1:48 8 10 mph 1029.1mb 51f
1:42 8 11 mph 1029mb 51f
1:36 8 10 mph 1029.1mb 51f
1:30 8 11 mph 1029.2mb 51f
1:24 8 11 mph 1029.3mb 51f
1:18 8 11 mph 1029.3mb 51f
1:12 8 10 mph 1029.3mb 51f
1:06 7 10 mph 1029.5mb 50f
1:00 8 9 mph 1029.5mb 50f
12:54 7 10 mph 1029.6mb 51f
12:48 6 9 mph 1029.7mb 50f
12:42 5 8 mph 1029.7mb 50f
12:36 6 9 mph 1029.8mb 50f
12:30 5 7 mph 1029.9mb 50f
12:24 6 9 mph 1030.1mb 50f
12:18 6 9 mph 1030.2mb 50f
12:12 7 9 mph 1030.2mb 50f
12:06 7 9 mph 1030.3mb 50f
12:00 6 8 mph 1030.3mb -
11:54 5 11 mph 1030.3mb 50f
11:48 8 10 mph 1030.3mb 50f
11:42 3 9 mph 1030.4mb 50f
11:36 5 8 mph 1030.4mb 50f
11:30 5 8 mph 1030.3mb 50f
11:24 1 6 mph 1030.2mb 50f
11:18 1 3 mph 1030.1mb 50f
11:12 1 3 mph 1030.1mb 50f
11:06  -  3 mph 1030mb 50f
11:00  -  3 mph 1030.1mb 50f
10:54  -  5 mph 1030mb 50f
10:48  -  5 mph 1029.9mb 50f
10:42 1 8 mph 1030mb 50f
10:36 2 6 mph 1030.2mb 50f
10:30 5 7 mph 1030.1mb -
10:24 2 6 mph 1030mb 50f
10:18 1 5 mph 1030mb 49f
10:12 1 3 mph 1030mb 49f
10:06 2 5 mph 1030.2mb 48f
10:00 3 5 mph 1030.1mb 48f
9:54 3 5 mph 1030.2mb 48f
9:48 5
mph
1030.2mb 48f
9:42 3 5 mph 1030.2mb 48f
9:36 3 5 mph 1030.2mb 48f
9:30 5 6 mph 1030.3mb 48f
9:24 6
mph
1030.2mb 48f
9:18 6 7 mph 1030.3mb 48f
9:12 6 7 mph 1030.2mb 48f
9:06 6
mph
1030.4mb 48f
9:00 6 7 mph 1030.4mb 48f
8:54 6
mph
1030.6mb 47f
8:48 5 6 mph 1030.9mb 47f
8:42 6
mph
1030.6mb 48f
8:36 6 7 mph 1030.5mb 48f
8:30 3 5 mph 1030.6mb 48f
8:24 5 6 mph 1030.5mb 48f
8:18 5 6 mph 1030.8mb 48f
8:12 5 6 mph 1030.9mb 47f
8:06 6 7 mph 1031.2mb 47f
8:00 7 8 mph 1031.3mb 47f
7:54 6 7 mph 1031.2mb 47f
7:48 6 7 mph 1031mb 47f
7:42 3 5 mph 1030.8mb 47f
7:36  -  2 mph 1030.6mb 48f
7:30  -  1 mph 1030.4mb 48f
7:24  -  1 mph 1030.4mb 48f
7:18  -  1 mph 1030.3mb 48f
7:12  -  2 mph 1030.4mb 48f
7:06  -  2 mph 1030.4mb 48f
7:00  -  1 mph 1030.4mb 48f